Terminal Aerodrome Forecast
Issued by NWS Portland, OR

Current Version | Previous Version | Text Only | Print | Product List | Glossary On
Versions: 1 2 3 4 5 6 7 8 9 10 11 12 13 14 15 16 17 18 19 20 21 22 23 24 25 26 27 28 29 30 31 32 33 34
876
FTUS46 KPQR 061736
TAFEUG
TAF
KEUG 061736Z 0618/0718 36005KT 2SM BR OVC002
     FM061930 36005KT 5SM BR BKN004 OVC008
     FM062100 36005KT P6SM BKN008 OVC010
     FM062300 36005KT P6SM SCT010 OVC150
     FM070200 VRB03KT P6SM SCT010 SCT050 OVC100
     FM070900 10003KT P6SM SCT010 BKN030 OVC050=

USA.gov is the U.S. government's official web portal to all federal, state and local government web resources and services.